sensor_id;sensor_type;location;lat;lon;timestamp;pressure;altitude;pressure_sealevel;temperature;humidity
16100;BME280;8154;50.830;12.082;2022-09-09T00:02:27;99032.00;;;24.22;43.58
16100;BME280;8154;50.830;12.082;2022-09-09T00:05:19;99034.25;;;24.25;43.23
16100;BME280;8154;50.830;12.082;2022-09-09T00:08:18;99025.44;;;24.18;43.58
16100;BME280;8154;50.830;12.082;2022-09-09T00:11:03;99027.31;;;24.17;43.40
16100;BME280;8154;50.830;12.082;2022-09-09T00:13:53;99032.00;;;24.22;43.17
16100;BME280;8154;50.830;12.082;2022-09-09T00:16:41;99027.88;;;24.19;43.51
16100;BME280;8154;50.830;12.082;2022-09-09T00:23:11;99019.88;;;24.19;43.39
16100;BME280;8154;50.830;12.082;2022-09-09T00:32:09;99020.72;;;24.13;43.23
16100;BME280;8154;50.830;12.082;2022-09-09T00:35:03;99012.06;;;24.18;43.41
16100;BME280;8154;50.830;12.082;2022-09-09T00:37:50;99017.00;;;24.21;43.22
16100;BME280;8154;50.830;12.082;2022-09-09T00:40:44;99018.66;;;24.22;43.20
16100;BME280;8154;50.830;12.082;2022-09-09T00:43:32;99011.91;;;24.13;43.15
16100;BME280;8154;50.830;12.082;2022-09-09T00:56:12;99013.34;;;24.09;43.30
16100;BME280;8154;50.830;12.082;2022-09-09T00:59:10;99019.09;;;24.12;43.13
16100;BME280;8154;50.830;12.082;2022-09-09T01:01:59;99014.19;;;24.09;43.17
16100;BME280;8154;50.830;12.082;2022-09-09T01:04:45;99020.97;;;24.05;43.53
16100;BME280;8154;50.830;12.082;2022-09-09T01:07:29;99012.75;;;24.07;43.05
16100;BME280;8154;50.830;12.082;2022-09-09T01:13:34;99008.22;;;24.07;42.93
16100;BME280;8154;50.830;12.082;2022-09-09T01:16:19;99021.78;;;24.06;43.07
16100;BME280;8154;50.830;12.082;2022-09-09T01:19:07;99013.13;;;24.10;42.92
16100;BME280;8154;50.830;12.082;2022-09-09T01:22:05;99020.75;;;24.07;43.20
16100;BME280;8154;50.830;12.082;2022-09-09T01:28:00;99015.22;;;24.08;43.25
16100;BME280;8154;50.830;12.082;2022-09-09T01:30:46;99013.34;;;24.09;43.01
16100;BME280;8154;50.830;12.082;2022-09-09T01:33:31;99010.69;;;24.02;42.96
16100;BME280;8154;50.830;12.082;2022-09-09T01:39:05;98996.13;;;24.05;43.21
16100;BME280;8154;50.830;12.082;2022-09-09T01:41:49;98996.97;;;23.99;43.01
16100;BME280;8154;50.830;12.082;2022-09-09T01:44:34;99004.34;;;23.97;43.05
16100;BME280;8154;50.830;12.082;2022-09-09T01:47:18;98995.91;;;24.00;43.29
16100;BME280;8154;50.830;12.082;2022-09-09T01:50:02;98999.00;;;24.03;43.24
16100;BME280;8154;50.830;12.082;2022-09-09T01:52:50;99003.91;;;24.06;42.81
16100;BME280;8154;50.830;12.082;2022-09-09T01:55:41;98995.69;;;24.08;43.14
16100;BME280;8154;50.830;12.082;2022-09-09T02:10:21;98992.03;;;23.96;42.66
16100;BME280;8154;50.830;12.082;2022-09-09T02:13:11;98990.59;;;24.00;42.99
16100;BME280;8154;50.830;12.082;2022-09-09T02:16:22;98995.72;;;24.01;42.83
16100;BME280;8154;50.830;12.082;2022-09-09T02:22:00;98994.47;;;23.91;43.00
16100;BME280;8154;50.830;12.082;2022-09-09T02:24:46;98995.91;;;23.93;42.59
16100;BME280;8154;50.830;12.082;2022-09-09T02:27:31;99005.97;;;23.98;42.71
16100;BME280;8154;50.830;12.082;2022-09-09T02:30:15;99004.13;;;23.98;42.40
16100;BME280;8154;50.830;12.082;2022-09-09T02:33:02;98996.97;;;23.99;42.38
16100;BME280;8154;50.830;12.082;2022-09-09T02:35:48;99004.34;;;23.97;42.45
16100;BME280;8154;50.830;12.082;2022-09-09T02:38:40;99006.19;;;23.90;42.45
16100;BME280;8154;50.830;12.082;2022-09-09T02:41:33;98989.56;;;23.88;42.51
16100;BME280;8154;50.830;12.082;2022-09-09T02:44:18;98998.56;;;23.93;42.64
16100;BME280;8154;50.830;12.082;2022-09-09T02:47:30;99002.91;;;23.88;42.42
16100;BME280;8154;50.830;12.082;2022-09-09T02:50:36;99000.66;;;23.85;42.47
16100;BME280;8154;50.830;12.082;2022-09-09T02:53:34;98998.41;;;23.88;42.80
16100;BME280;8154;50.830;12.082;2022-09-09T02:56:23;98995.31;;;23.91;42.36
16100;BME280;8154;50.830;12.082;2022-09-09T02:59:10;98995.53;;;23.83;42.65
16100;BME280;8154;50.830;12.082;2022-09-09T03:01:55;98994.91;;;23.81;42.50
16100;BME280;8154;50.830;12.082;2022-09-09T03:04:40;98996.75;;;23.87;42.63
16100;BME280;8154;50.830;12.082;2022-09-09T03:07:25;98995.72;;;23.88;42.54
16100;BME280;8154;50.830;12.082;2022-09-09T03:10:11;98997.97;;;23.91;42.34
16100;BME280;8154;50.830;12.082;2022-09-09T03:12:55;99001.28;;;23.87;42.40
16100;BME280;8154;50.830;12.082;2022-09-09T03:15:39;98994.91;;;23.81;42.42
16100;BME280;8154;50.830;12.082;2022-09-09T03:18:23;99001.50;;;23.85;42.69
16100;BME280;8154;50.830;12.082;2022-09-09T03:21:07;99002.06;;;23.87;42.47
16100;BME280;8154;50.830;12.082;2022-09-09T03:23:52;99003.53;;;23.90;42.04
16100;BME280;8154;50.830;12.082;2022-09-09T03:26:36;98999.19;;;23.89;42.33
16100;BME280;8154;50.830;12.082;2022-09-09T03:29:21;98994.91;;;23.81;42.49
16100;BME280;8154;50.830;12.082;2022-09-09T03:32:05;99000.44;;;23.80;42.33
16100;BME280;8154;50.830;12.082;2022-09-09T03:34:50;98998.00;;;23.85;42.27
16100;BME280;8154;50.830;12.082;2022-09-09T03:37:33;99000.25;;;23.88;42.23
16100;BME280;8154;50.830;12.082;2022-09-09T03:40:18;98999.19;;;23.89;42.29
16100;BME280;8154;50.830;12.082;2022-09-09T03:43:03;98996.53;;;23.82;42.20
16100;BME280;8154;50.830;12.082;2022-09-09T03:45:47;98996.75;;;23.81;42.26
16100;BME280;8154;50.830;12.082;2022-09-09T03:48:32;99002.69;;;23.83;42.32
16100;BME280;8154;50.830;12.082;2022-09-09T03:51:16;98993.47;;;23.85;42.47
16100;BME280;8154;50.830;12.082;2022-09-09T03:54:00;98990.81;;;23.85;42.53
16100;BME280;8154;50.830;12.082;2022-09-09T03:56:44;98993.66;;;23.84;42.30
16100;BME280;8154;50.830;12.082;2022-09-09T03:59:29;98995.31;;;23.78;42.48
16100;BME280;8154;50.830;12.082;2022-09-09T04:02:14;98984.84;;;23.77;42.37
16100;BME280;8154;50.830;12.082;2022-09-09T04:04:59;98992.84;;;23.83;42.32
16100;BME280;8154;50.830;12.082;2022-09-09T04:07:43;98998.81;;;23.79;42.56
16100;BME280;8154;50.830;12.082;2022-09-09T04:10:27;98996.38;;;23.77;42.39
16100;BME280;8154;50.830;12.082;2022-09-09T04:13:13;98995.94;;;23.80;42.38
16100;BME280;8154;50.830;12.082;2022-09-09T04:15:59;98995.75;;;23.82;42.37
16100;BME280;8154;50.830;12.082;2022-09-09T04:18:44;98993.91;;;23.76;42.13
16100;BME280;8154;50.830;12.082;2022-09-09T04:21:28;98990.81;;;23.72;42.55
16100;BME280;8154;50.830;12.082;2022-09-09T04:24:13;98992.66;;;23.78;42.13
16100;BME280;8154;50.830;12.082;2022-09-09T04:26:57;98993.66;;;23.84;42.13
16100;BME280;8154;50.830;12.082;2022-09-09T04:29:41;98992.03;;;23.83;42.36
16100;BME280;8154;50.830;12.082;2022-09-09T04:32:25;99002.50;;;23.78;42.14
16100;BME280;8154;50.830;12.082;2022-09-09T04:35:11;99003.34;;;23.72;42.29
16100;BME280;8154;50.830;12.082;2022-09-09T04:37:55;99001.06;;;23.75;42.17
16100;BME280;8154;50.830;12.082;2022-09-09T04:40:42;98999.84;;;23.78;42.37
16100;BME280;8154;50.830;12.082;2022-09-09T04:43:27;98999.63;;;23.79;42.08
16100;BME280;8154;50.830;12.082;2022-09-09T04:46:11;99002.91;;;23.81;42.09
16100;BME280;8154;50.830;12.082;2022-09-09T04:48:55;99005.59;;;23.81;42.15
16100;BME280;8154;50.830;12.082;2022-09-09T04:51:40;99010.91;;;23.81;42.26
16100;BME280;8154;50.830;12.082;2022-09-09T04:54:24;99006.84;;;23.72;42.24
16100;BME280;8154;50.830;12.082;2022-09-09T04:57:10;99004.16;;;23.72;42.37
16100;BME280;8154;50.830;12.082;2022-09-09T04:59:54;98997.16;;;23.78;42.21
16100;BME280;8154;50.830;12.082;2022-09-09T05:02:39;98999.44;;;23.74;42.47
16100;BME280;8154;50.830;12.082;2022-09-09T05:05:23;99006.41;;;23.69;42.31
16100;BME280;8154;50.830;12.082;2022-09-09T05:08:08;99002.31;;;23.73;42.12
16100;BME280;8154;50.830;12.082;2022-09-09T05:10:53;99010.13;;;23.74;42.11
16100;BME280;8154;50.830;12.082;2022-09-09T05:13:37;99006.63;;;23.74;42.34
16100;BME280;8154;50.830;12.082;2022-09-09T05:16:21;99011.34;;;23.72;42.54
16100;BME280;8154;50.830;12.082;2022-09-09T05:19:07;99010.53;;;23.65;42.39
16100;BME280;8154;50.830;12.082;2022-09-09T05:21:52;99008.69;;;23.65;42.41
16100;BME280;8154;50.830;12.082;2022-09-09T05:24:36;99013.84;;;23.67;42.58
16100;BME280;8154;50.830;12.082;2022-09-09T05:27:20;99011.75;;;23.69;42.38
16100;BME280;8154;50.830;12.082;2022-09-09T05:30:05;99011.16;;;23.67;42.65
16100;BME280;8154;50.830;12.082;2022-09-09T05:32:50;99010.97;;;23.62;42.51
16100;BME280;8154;50.830;12.082;2022-09-09T05:35:34;99013.84;;;23.60;42.53
16100;BME280;8154;50.830;12.082;2022-09-09T05:38:18;99020.78;;;23.61;42.73
16100;BME280;8154;50.830;12.082;2022-09-09T05:41:03;99021.41;;;23.63;42.73
16100;BME280;8154;50.830;12.082;2022-09-09T05:43:47;99022.84;;;23.59;42.76
16100;BME280;8154;50.830;12.082;2022-09-09T05:46:33;99025.94;;;23.56;42.76
16100;BME280;8154;50.830;12.082;2022-09-09T05:49:17;99036.38;;;23.58;42.94
16100;BME280;8154;50.830;12.082;2022-09-09T05:52:01;99036.81;;;23.55;43.00
16100;BME280;8154;50.830;12.082;2022-09-09T05:54:47;99038.03;;;23.52;43.10
16100;BME280;8154;50.830;12.082;2022-09-09T05:57:32;99034.75;;;23.50;43.40
16100;BME280;8154;50.830;12.082;2022-09-09T06:00:16;99034.56;;;23.52;43.11
16100;BME280;8154;50.830;12.082;2022-09-09T06:03:00;99037.22;;;23.52;43.21
16100;BME280;8154;50.830;12.082;2022-09-09T06:05:44;99036.81;;;23.48;43.20
16100;BME280;8154;50.830;12.082;2022-09-09T06:08:29;99039.69;;;23.53;43.09
16100;BME280;8154;50.830;12.082;2022-09-09T06:11:18;99029.00;;;23.53;43.05
16100;BME280;8154;50.830;12.082;2022-09-09T06:14:03;99034.13;;;23.55;43.23
16100;BME280;8154;50.830;12.082;2022-09-09T06:16:48;99036.59;;;23.56;43.28
16100;BME280;8154;50.830;12.082;2022-09-09T06:19:31;99041.75;;;23.51;43.28
16100;BME280;8154;50.830;12.082;2022-09-09T06:22:15;99032.91;;;23.51;43.40
16100;BME280;8154;50.830;12.082;2022-09-09T06:25:01;99034.75;;;23.50;43.43
16100;BME280;8154;50.830;12.082;2022-09-09T06:27:48;99036.63;;;23.50;43.37
16100;BME280;8154;50.830;12.082;2022-09-09T06:30:34;99026.16;;;23.48;43.48
16100;BME280;8154;50.830;12.082;2022-09-09T06:33:18;99032.28;;;23.49;43.56
16100;BME280;8154;50.830;12.082;2022-09-09T06:36:03;99032.09;;;23.50;43.23
16100;BME280;8154;50.830;12.082;2022-09-09T06:38:47;99023.50;;;23.48;43.26
16100;BME280;8154;50.830;12.082;2022-09-09T06:41:32;99039.66;;;23.47;43.58
16100;BME280;8154;50.830;12.082;2022-09-09T06:44:16;99030.66;;;23.48;43.38
16100;BME280;8154;50.830;12.082;2022-09-09T06:47:00;99034.34;;;23.47;43.70
16100;BME280;8154;50.830;12.082;2022-09-09T06:49:44;99036.19;;;23.46;43.48
16100;BME280;8154;50.830;12.082;2022-09-09T06:52:29;99032.91;;;23.44;43.37
16100;BME280;8154;50.830;12.082;2022-09-09T06:55:13;99028.41;;;23.45;43.45
16100;BME280;8154;50.830;12.082;2022-09-09T06:58:00;99037.22;;;23.45;43.68
16100;BME280;8154;50.830;12.082;2022-09-09T07:00:44;99039.66;;;23.47;43.54
16100;BME280;8154;50.830;12.082;2022-09-09T07:03:28;99044.19;;;23.46;43.64
16100;BME280;8154;50.830;12.082;2022-09-09T07:06:14;99038.03;;;23.46;43.81
16100;BME280;8154;50.830;12.082;2022-09-09T07:09:08;99043.16;;;23.47;43.59
16100;BME280;8154;50.830;12.082;2022-09-09T07:11:52;99035.16;;;23.47;43.80
16100;BME280;8154;50.830;12.082;2022-09-09T07:14:37;99026.34;;;23.47;43.93
16100;BME280;8154;50.830;12.082;2022-09-09T07:17:21;99029.22;;;23.45;43.96
16100;BME280;8154;50.830;12.082;2022-09-09T07:20:05;99026.16;;;23.42;43.85
16100;BME280;8154;50.830;12.082;2022-09-09T07:22:54;99028.63;;;23.43;44.09
16100;BME280;8154;50.830;12.082;2022-09-09T07:25:44;99025.31;;;23.48;43.75
16100;BME280;8154;50.830;12.082;2022-09-09T07:28:29;99034.75;;;23.50;43.53
16100;BME280;8154;50.830;12.082;2022-09-09T07:31:18;99032.50;;;23.47;43.94
16100;BME280;8154;50.830;12.082;2022-09-09T07:34:03;99039.28;;;23.50;43.75
16100;BME280;8154;50.830;12.082;2022-09-09T07:36:48;99041.75;;;23.51;43.87
16100;BME280;8154;50.830;12.082;2022-09-09T07:39:32;99034.16;;;23.48;43.82
16100;BME280;8154;50.830;12.082;2022-09-09T07:42:16;99032.28;;;23.49;44.11
16100;BME280;8154;50.830;12.082;2022-09-09T07:45:00;99036.22;;;23.53;43.98
16100;BME280;8154;50.830;12.082;2022-09-09T07:47:45;99030.47;;;23.49;43.96
16100;BME280;8154;50.830;12.082;2022-09-09T07:50:29;99034.34;;;23.47;43.97
16100;BME280;8154;50.830;12.082;2022-09-09T07:53:14;99043.38;;;23.46;44.47
16100;BME280;8154;50.830;12.082;2022-09-09T07:56:03;99044.81;;;23.48;44.01
16100;BME280;8154;50.830;12.082;2022-09-09T07:58:49;99044.81;;;23.48;44.09
16100;BME280;8154;50.830;12.082;2022-09-09T08:01:36;99054.88;;;23.46;44.27
16100;BME280;8154;50.830;12.082;2022-09-09T08:04:24;99045.00;;;23.47;44.22
16100;BME280;8154;50.830;12.082;2022-09-09T08:07:10;99042.97;;;23.49;44.08
16100;BME280;8154;50.830;12.082;2022-09-09T08:09:54;99045.84;;;23.47;44.48
16100;BME280;8154;50.830;12.082;2022-09-09T08:12:39;99058.16;;;23.48;44.31
16100;BME280;8154;50.830;12.082;2022-09-09T08:15:24;99046.25;;;23.51;44.45
16100;BME280;8154;50.830;12.082;2022-09-09T08:18:08;99053.44;;;23.50;44.30
16100;BME280;8154;50.830;12.082;2022-09-09T08:20:53;99055.28;;;23.50;44.39
16100;BME280;8154;50.830;12.082;2022-09-09T08:23:39;99055.28;;;23.50;44.57
16100;BME280;8154;50.830;12.082;2022-09-09T08:26:28;99052.84;;;23.48;44.37
16100;BME280;8154;50.830;12.082;2022-09-09T08:29:13;99050.16;;;23.48;44.51
16100;BME280;8154;50.830;12.082;2022-09-09T08:31:58;99052.41;;;23.51;44.40
16100;BME280;8154;50.830;12.082;2022-09-09T08:34:42;99055.88;;;23.52;44.45
16100;BME280;8154;50.830;12.082;2022-09-09T08:37:26;99057.34;;;23.54;44.55
16100;BME280;8154;50.830;12.082;2022-09-09T08:40:31;99048.31;;;23.55;44.37
16100;BME280;8154;50.830;12.082;2022-09-09T08:43:20;99050.34;;;23.60;44.08
16100;BME280;8154;50.830;12.082;2022-09-09T08:46:13;99060.81;;;23.61;44.26
16100;BME280;8154;50.830;12.082;2022-09-09T08:52:00;99058.97;;;23.62;44.16
16100;BME280;8154;50.830;12.082;2022-09-09T08:54:46;99054.25;;;23.57;44.49
16100;BME280;8154;50.830;12.082;2022-09-09T08:57:30;99059.81;;;23.56;44.59
16100;BME280;8154;50.830;12.082;2022-09-09T09:00:15;99063.69;;;23.60;44.73
16100;BME280;8154;50.830;12.082;2022-09-09T09:03:19;99066.78;;;23.63;44.88
16100;BME280;8154;50.830;12.082;2022-09-09T09:11:59;99052.81;;;23.74;44.88
16100;BME280;8154;50.830;12.082;2022-09-09T09:14:48;99056.50;;;23.80;44.81
16100;BME280;8154;50.830;12.082;2022-09-09T09:17:33;99056.28;;;23.81;44.77
16100;BME280;8154;50.830;12.082;2022-09-09T09:20:23;99059.38;;;23.85;44.53
16100;BME280;8154;50.830;12.082;2022-09-09T09:23:19;99058.94;;;23.88;44.36
16100;BME280;8154;50.830;12.082;2022-09-09T09:26:07;99048.06;;;23.89;44.72
16100;BME280;8154;50.830;12.082;2022-09-09T09:28:55;99053.81;;;23.93;44.18
16100;BME280;8154;50.830;12.082;2022-09-09T09:31:50;99052.41;;;23.97;44.31
16100;BME280;8154;50.830;12.082;2022-09-09T09:34:35;99058.56;;;23.97;44.62
16100;BME280;8154;50.830;12.082;2022-09-09T09:37:29;99055.91;;;23.97;44.48
16100;BME280;8154;50.830;12.082;2022-09-09T09:40:17;99052.81;;;24.00;44.47
16100;BME280;8154;50.830;12.082;2022-09-09T09:43:01;99051.78;;;24.01;44.37
16100;BME280;8154;50.830;12.082;2022-09-09T09:45:52;99044.16;;;24.05;44.21
16100;BME280;8154;50.830;12.082;2022-09-09T09:48:36;99048.69;;;24.04;44.22
16100;BME280;8154;50.830;12.082;2022-09-09T09:51:22;99057.94;;;24.02;44.55
16100;BME280;8154;50.830;12.082;2022-09-09T09:54:31;99055.06;;;24.03;44.28
16100;BME280;8154;50.830;12.082;2022-09-09T09:57:17;99057.72;;;24.03;44.59
16100;BME280;8154;50.830;12.082;2022-09-09T10:00:17;99060.59;;;24.02;44.37
16100;BME280;8154;50.830;12.082;2022-09-09T10:03:18;99060.00;;;24.00;44.22
16100;BME280;8154;50.830;12.082;2022-09-09T10:06:04;99062.66;;;24.00;44.55
16100;BME280;8154;50.830;12.082;2022-09-09T10:08:48;99057.72;;;23.97;44.50
16100;BME280;8154;50.830;12.082;2022-09-09T10:12:19;99058.78;;;23.96;44.50
16100;BME280;8154;50.830;12.082;2022-09-09T10:14:50;99058.13;;;23.94;44.55
16100;BME280;8154;50.830;12.082;2022-09-09T10:30:18;99050.53;;;23.91;44.83
16100;BME280;8154;50.830;12.082;2022-09-09T10:33:16;99051.97;;;23.87;44.61
16100;BME280;8154;50.830;12.082;2022-09-09T10:36:13;99041.69;;;23.90;44.43
16100;BME280;8154;50.830;12.082;2022-09-09T10:39:59;99035.72;;;23.95;44.65
16100;BME280;8154;50.830;12.082;2022-09-09T10:42:29;99040.69;;;23.91;44.37
16100;BME280;8154;50.830;12.082;2022-09-09T10:45:21;99031.63;;;23.92;44.73
16100;BME280;8154;50.830;12.082;2022-09-09T10:57:09;99045.41;;;23.89;44.80
16100;BME280;8154;50.830;12.082;2022-09-09T10:59:58;99047.25;;;23.89;44.78
16100;BME280;8154;50.830;12.082;2022-09-09T11:03:13;99048.47;;;23.86;44.59
16100;BME280;8154;50.830;12.082;2022-09-09T11:06:06;99039.66;;;23.86;44.85
16100;BME280;8154;50.830;12.082;2022-09-09T11:08:55;99040.06;;;23.83;44.97
16100;BME280;8154;50.830;12.082;2022-09-09T11:11:46;99028.34;;;23.84;44.86
16100;BME280;8154;50.830;12.082;2022-09-09T11:14:37;99026.50;;;23.84;44.90
16100;BME280;8154;50.830;12.082;2022-09-09T11:17:35;99031.03;;;23.84;44.89
16100;BME280;8154;50.830;12.082;2022-09-09T11:20:23;99027.97;;;23.87;44.49
16100;BME280;8154;50.830;12.082;2022-09-09T11:23:19;99018.28;;;23.86;44.57
16100;BME280;8154;50.830;12.082;2022-09-09T11:26:10;99019.13;;;23.86;44.50
16100;BME280;8154;50.830;12.082;2022-09-09T11:32:44;99009.06;;;23.88;44.73
16100;BME280;8154;50.830;12.082;2022-09-09T11:39:00;99007.81;;;23.91;44.43
16100;BME280;8154;50.830;12.082;2022-09-09T11:41:50;99010.69;;;23.89;44.74
16100;BME280;8154;50.830;12.082;2022-09-09T11:44:34;99005.38;;;23.89;44.73
16100;BME280;8154;50.830;12.082;2022-09-09T11:47:29;99007.19;;;23.89;44.80
16100;BME280;8154;50.830;12.082;2022-09-09T11:56:11;99006.00;;;23.85;44.50
16100;BME280;8154;50.830;12.082;2022-09-09T11:59:05;99012.16;;;23.85;44.57
16100;BME280;8154;50.830;12.082;2022-09-09T12:01:57;99003.94;;;23.87;44.80
16100;BME280;8154;50.830;12.082;2022-09-09T12:04:59;99006.63;;;23.87;44.84
16100;BME280;8154;50.830;12.082;2022-09-09T12:07:56;99009.50;;;23.85;44.81
16100;BME280;8154;50.830;12.082;2022-09-09T12:10:53;99011.34;;;23.85;44.72
16100;BME280;8154;50.830;12.082;2022-09-09T12:13:38;99002.69;;;23.83;44.63
16100;BME280;8154;50.830;12.082;2022-09-09T12:16:48;99003.94;;;23.87;44.62
16100;BME280;8154;50.830;12.082;2022-09-09T12:19:33;98997.78;;;23.86;44.91
16100;BME280;8154;50.830;12.082;2022-09-09T12:22:37;98987.53;;;23.83;44.98
16100;BME280;8154;50.830;12.082;2022-09-09T12:35:09;98959.59;;;23.79;44.98
16100;BME280;8154;50.830;12.082;2022-09-09T12:37:58;98955.09;;;23.80;44.93
16100;BME280;8154;50.830;12.082;2022-09-09T12:40:54;98957.97;;;23.78;44.96
16100;BME280;8154;50.830;12.082;2022-09-09T12:43:39;98947.09;;;23.80;45.05
16100;BME280;8154;50.830;12.082;2022-09-09T12:46:41;98956.94;;;23.79;44.90
16100;BME280;8154;50.830;12.082;2022-09-09T12:49:38;98950.78;;;23.79;44.81
16100;BME280;8154;50.830;12.082;2022-09-09T12:52:33;98955.91;;;23.80;44.93
16100;BME280;8154;50.830;12.082;2022-09-09T12:55:21;98958.78;;;23.79;45.04
16100;BME280;8154;50.830;12.082;2022-09-09T12:58:14;98956.75;;;23.74;45.00
16100;BME280;8154;50.830;12.082;2022-09-09T13:01:02;98945.88;;;23.76;45.21
16100;BME280;8154;50.830;12.082;2022-09-09T13:03:48;98954.88;;;23.75;45.28
16100;BME280;8154;50.830;12.082;2022-09-09T13:06:33;98965.56;;;23.75;45.13
16100;BME280;8154;50.830;12.082;2022-09-09T13:09:19;98972.97;;;23.73;45.17
16100;BME280;8154;50.830;12.082;2022-09-09T13:12:04;98964.16;;;23.72;45.17
16100;BME280;8154;50.830;12.082;2022-09-09T13:14:53;98972.34;;;23.71;44.95
16100;BME280;8154;50.830;12.082;2022-09-09T13:17:37;98970.31;;;23.73;44.96
16100;BME280;8154;50.830;12.082;2022-09-09T13:20:23;98969.28;;;23.74;44.99
16100;BME280;8154;50.830;12.082;2022-09-09T13:23:11;98978.53;;;23.71;45.25
16100;BME280;8154;50.830;12.082;2022-09-09T13:26:03;98971.53;;;23.70;45.05
16100;BME280;8154;50.830;12.082;2022-09-09T13:28:48;98963.53;;;23.70;45.14
16100;BME280;8154;50.830;12.082;2022-09-09T13:31:35;98961.91;;;23.69;45.02
16100;BME280;8154;50.830;12.082;2022-09-09T13:34:31;98964.16;;;23.72;45.36
16100;BME280;8154;50.830;12.082;2022-09-09T13:40:18;98966.19;;;23.70;45.14
16100;BME280;8154;50.830;12.082;2022-09-09T13:43:03;98966.41;;;23.69;45.29
16100;BME280;8154;50.830;12.082;2022-09-09T13:46:00;98958.81;;;23.66;45.20
16100;BME280;8154;50.830;12.082;2022-09-09T13:49:01;98961.28;;;23.67;45.18
16100;BME280;8154;50.830;12.082;2022-09-09T13:51:47;98971.53;;;23.70;45.15
16100;BME280;8154;50.830;12.082;2022-09-09T13:54:33;98977.28;;;23.67;45.06
16100;BME280;8154;50.830;12.082;2022-09-09T14:00:02;98972.97;;;23.66;45.31
16100;BME280;8154;50.830;12.082;2022-09-09T14:02:47;98967.84;;;23.65;45.32
16100;BME280;8154;50.830;12.082;2022-09-09T14:05:33;98976.88;;;23.64;45.22
16100;BME280;8154;50.830;12.082;2022-09-09T14:08:24;98972.78;;;23.61;45.34
16100;BME280;8154;50.830;12.082;2022-09-09T14:11:12;98967.03;;;23.64;45.18
16100;BME280;8154;50.830;12.082;2022-09-09T14:13:56;98962.53;;;23.65;45.18
16100;BME280;8154;50.830;12.082;2022-09-09T14:16:40;98952.06;;;23.63;44.99
16100;BME280;8154;50.830;12.082;2022-09-09T14:19:25;98946.72;;;23.63;45.12
16100;BME280;8154;50.830;12.082;2022-09-09T14:22:09;98943.84;;;23.65;45.23
16100;BME280;8154;50.830;12.082;2022-09-09T14:24:53;98946.94;;;23.68;45.21
16100;BME280;8154;50.830;12.082;2022-09-09T14:27:37;98946.09;;;23.68;44.97
16100;BME280;8154;50.830;12.082;2022-09-09T14:30:23;98940.75;;;23.68;44.98
16100;BME280;8154;50.830;12.082;2022-09-09T14:33:09;98934.81;;;23.66;44.97
16100;BME280;8154;50.830;12.082;2022-09-09T14:36:01;98947.13;;;23.67;45.07
16100;BME280;8154;50.830;12.082;2022-09-09T14:38:46;98949.59;;;23.62;45.33
16100;BME280;8154;50.830;12.082;2022-09-09T14:41:31;98960.28;;;23.62;45.13
16100;BME280;8154;50.830;12.082;2022-09-09T14:44:15;98962.31;;;23.60;45.22
16100;BME280;8154;50.830;12.082;2022-09-09T14:46:59;98974.03;;;23.59;45.38
16100;BME280;8154;50.830;12.082;2022-09-09T14:49:44;98980.16;;;23.59;45.35
16100;BME280;8154;50.830;12.082;2022-09-09T14:52:30;98983.03;;;23.58;45.12
16100;BME280;8154;50.830;12.082;2022-09-09T14:55:15;98986.31;;;23.60;45.40
16100;BME280;8154;50.830;12.082;2022-09-09T14:57:59;98987.97;;;23.61;45.16
16100;BME280;8154;50.830;12.082;2022-09-09T15:00:44;99000.28;;;23.62;45.42
16100;BME280;8154;50.830;12.082;2022-09-09T15:03:27;99002.34;;;23.60;45.57
16100;BME280;8154;50.830;12.082;2022-09-09T15:06:13;99000.28;;;23.62;45.35
16100;BME280;8154;50.830;12.082;2022-09-09T15:08:57;99002.13;;;23.61;45.11
16100;BME280;8154;50.830;12.082;2022-09-09T15:11:42;99008.28;;;23.62;45.44
16100;BME280;8154;50.830;12.082;2022-09-09T15:14:27;99002.75;;;23.63;45.16
16100;BME280;8154;50.830;12.082;2022-09-09T15:17:12;99008.09;;;23.63;45.30
16100;BME280;8154;50.830;12.082;2022-09-09T15:19:56;98994.34;;;23.60;45.13
16100;BME280;8154;50.830;12.082;2022-09-09T15:22:41;98992.28;;;23.62;45.18
16100;BME280;8154;50.830;12.082;2022-09-09T15:25:25;98992.06;;;23.63;45.31
16100;BME280;8154;50.830;12.082;2022-09-09T15:28:11;98989.19;;;23.65;44.96
16100;BME280;8154;50.830;12.082;2022-09-09T15:30:56;98986.75;;;23.63;45.19
16100;BME280;8154;50.830;12.082;2022-09-09T15:33:41;98986.53;;;23.65;44.84
16100;BME280;8154;50.830;12.082;2022-09-09T15:36:27;98987.53;;;23.64;44.84
16100;BME280;8154;50.830;12.082;2022-09-09T15:39:15;98986.75;;;23.63;44.92
16100;BME280;8154;50.830;12.082;2022-09-09T15:41:59;98989.63;;;23.62;44.88
16100;BME280;8154;50.830;12.082;2022-09-09T15:44:44;98984.28;;;23.62;44.79
16100;BME280;8154;50.830;12.082;2022-09-09T15:47:28;98987.97;;;23.61;44.86
16100;BME280;8154;50.830;12.082;2022-09-09T15:50:12;98981.00;;;23.60;44.85
16100;BME280;8154;50.830;12.082;2022-09-09T15:52:56;98974.03;;;23.59;45.02
16100;BME280;8154;50.830;12.082;2022-09-09T15:55:41;98980.78;;;23.61;44.77
16100;BME280;8154;50.830;12.082;2022-09-09T15:58:25;98979.75;;;23.62;44.99
16100;BME280;8154;50.830;12.082;2022-09-09T16:01:10;98974.41;;;23.62;44.77
16100;BME280;8154;50.830;12.082;2022-09-09T16:03:57;98983.66;;;23.60;45.16
16100;BME280;8154;50.830;12.082;2022-09-09T16:06:41;98973.00;;;23.60;44.93
16100;BME280;8154;50.830;12.082;2022-09-09T16:09:26;98969.91;;;23.63;44.88
16100;BME280;8154;50.830;12.082;2022-09-09T16:12:11;98970.53;;;23.65;44.61
16100;BME280;8154;50.830;12.082;2022-09-09T16:14:56;98977.06;;;23.69;44.52
16100;BME280;8154;50.830;12.082;2022-09-09T16:17:41;98978.31;;;23.66;44.52
16100;BME280;8154;50.830;12.082;2022-09-09T16:20:25;98972.97;;;23.66;44.62
16100;BME280;8154;50.830;12.082;2022-09-09T16:23:09;98982.63;;;23.74;44.32
16100;BME280;8154;50.830;12.082;2022-09-09T16:25:54;98983.03;;;23.71;44.49
16100;BME280;8154;50.830;12.082;2022-09-09T16:28:39;98985.69;;;23.71;44.35
16100;BME280;8154;50.830;12.082;2022-09-09T16:31:24;98991.66;;;23.73;44.34